TimePDT,TemperatureF,Dew PointF,Humidity,Sea Level PressureIn,VisibilityMPH,Wind Direction,Wind SpeedMPH,Gust SpeedMPH,PrecipitationIn,Events,Conditions,WindDirDegrees,DateUTC
12:53 AM,62.1,53.1,72,30.08,7.0,East,6.9,-,N/A,,Overcast,100,2013-04-04 07:53:00
1:53 AM,61.0,53.1,75,30.07,7.0,Variable,3.5,-,N/A,,Overcast,0,2013-04-04 08:53:00
2:53 AM,61.0,53.1,75,30.07,7.0,South,3.5,-,N/A,,Overcast,180,2013-04-04 09:53:00
3:53 AM,62.1,53.1,72,30.06,7.0,Calm,Calm,-,N/A,,Overcast,0,2013-04-04 10:53:00
4:53 AM,61.0,52.0,72,30.05,6.0,Calm,Calm,-,N/A,,Haze,0,2013-04-04 11:53:00
5:53 AM,62.1,52.0,70,30.04,6.0,Calm,Calm,-,N/A,,Haze,0,2013-04-04 12:53:00
6:53 AM,61.0,52.0,72,30.07,5.0,Calm,Calm,-,N/A,,Haze,0,2013-04-04 13:53:00
7:53 AM,63.0,52.0,67,30.09,5.0,Calm,Calm,-,N/A,,Haze,0,2013-04-04 14:53:00
8:02 AM,62.6,51.8,68,30.09,5.0,Calm,Calm,-,N/A,,Haze,0,2013-04-04 15:02:00
8:53 AM,64.9,52.0,63,30.09,5.0,Calm,Calm,-,N/A,,Haze,0,2013-04-04 15:53:00
9:10 AM,64.4,51.8,64,30.09,5.0,Calm,Calm,-,N/A,,Haze,0,2013-04-04 16:10:00
9:30 AM,66.2,51.8,60,30.10,5.0,Calm,Calm,-,N/A,,Haze,0,2013-04-04 16:30:00
9:53 AM,66.0,52.0,60,30.10,5.0,Variable,3.5,-,N/A,,Haze,0,2013-04-04 16:53:00
10:53 AM,70.0,53.1,55,30.10,5.0,WNW,4.6,-,N/A,,Haze,300,2013-04-04 17:53:00
11:53 AM,73.9,52.0,46,30.09,6.0,Variable,3.5,-,N/A,,Haze,0,2013-04-04 18:53:00
12:53 PM,75.0,53.1,46,30.06,8.0,Variable,5.8,-,N/A,,Partly Cloudy,0,2013-04-04 19:53:00
1:53 PM,75.0,52.0,44,30.05,10.0,SSW,5.8,-,N/A,,Clear,200,2013-04-04 20:53:00
2:53 PM,78.1,51.1,39,30.03,10.0,West,9.2,-,N/A,,Scattered Clouds,260,2013-04-04 21:53:00
3:53 PM,75.0,53.1,46,30.01,10.0,SW,6.9,-,N/A,,Clear,220,2013-04-04 22:53:00
4:53 PM,77.0,52.0,42,30.00,10.0,Variable,6.9,-,N/A,,Partly Cloudy,0,2013-04-04 23:53:00
5:53 PM,72.0,52.0,49,30.00,10.0,West,5.8,-,N/A,,Clear,270,2013-04-05 00:53:00
6:53 PM,68.0,52.0,56,30.01,10.0,Variable,6.9,-,N/A,,Clear,0,2013-04-05 01:53:00
7:53 PM,64.9,53.1,65,30.03,10.0,West,3.5,-,N/A,,Clear,260,2013-04-05 02:53:00
8:53 PM,64.0,54.0,70,30.04,10.0,Calm,Calm,-,N/A,,Clear,0,2013-04-05 03:53:00
9:53 PM,64.0,54.0,70,30.06,10.0,WSW,6.9,-,N/A,,Clear,240,2013-04-05 04:53:00
10:41 PM,62.6,53.6,72,30.07,10.0,SW,4.6,-,N/A,,Mostly Cloudy,230,2013-04-05 05:41:00
10:50 PM,62.6,53.6,72,30.06,10.0,Variable,3.5,-,N/A,,Scattered Clouds,0,2013-04-05 05:50:00
10:53 PM,62.1,54.0,75,30.06,10.0,Calm,Calm,-,N/A,,Scattered Clouds,0,2013-04-05 05:53:00
11:21 PM,62.6,53.6,72,30.06,10.0,SSW,4.6,-,N/A,,Mostly Cloudy,210,2013-04-05 06:21:00
11:53 PM,62.1,55.0,78,30.07,10.0,Calm,Calm,-,N/A,,Overcast,0,2013-04-05 06:53:00